sensor_id;sensor_type;location;lat;lon;timestamp;P1;durP1;ratioP1;P2;durP2;ratioP2
53654;SDS011;39558;52.028;8.536;2023-03-07T00:01:53;1.58;;;1.13;;
53654;SDS011;39558;52.028;8.536;2023-03-07T00:04:19;2.25;;;0.80;;
53654;SDS011;39558;52.028;8.536;2023-03-07T00:06:45;1.02;;;0.70;;
53654;SDS011;39558;52.028;8.536;2023-03-07T00:09:11;1.55;;;0.93;;
53654;SDS011;39558;52.028;8.536;2023-03-07T00:11:36;1.90;;;1.02;;
53654;SDS011;39558;52.028;8.536;2023-03-07T00:14:05;1.17;;;0.70;;
53654;SDS011;39558;52.028;8.536;2023-03-07T00:16:31;2.22;;;0.95;;
53654;SDS011;39558;52.028;8.536;2023-03-07T00:18:57;1.67;;;0.80;;
53654;SDS011;39558;52.028;8.536;2023-03-07T00:21:25;1.30;;;0.90;;
53654;SDS011;39558;52.028;8.536;2023-03-07T00:23:55;1.92;;;0.80;;
53654;SDS011;39558;52.028;8.536;2023-03-07T00:26:22;1.30;;;0.75;;
53654;SDS011;39558;52.028;8.536;2023-03-07T00:28:49;1.10;;;0.80;;
53654;SDS011;39558;52.028;8.536;2023-03-07T00:31:16;2.95;;;0.93;;
53654;SDS011;39558;52.028;8.536;2023-03-07T00:33:42;2.47;;;0.95;;
53654;SDS011;39558;52.028;8.536;2023-03-07T00:36:15;1.45;;;0.88;;
53654;SDS011;39558;52.028;8.536;2023-03-07T00:38:43;1.15;;;0.68;;
53654;SDS011;39558;52.028;8.536;2023-03-07T00:41:11;1.15;;;0.80;;
53654;SDS011;39558;52.028;8.536;2023-03-07T00:43:37;1.58;;;0.90;;
53654;SDS011;39558;52.028;8.536;2023-03-07T00:46:04;2.33;;;1.52;;
53654;SDS011;39558;52.028;8.536;2023-03-07T00:48:31;1.00;;;0.68;;
53654;SDS011;39558;52.028;8.536;2023-03-07T00:50:58;1.60;;;0.90;;
53654;SDS011;39558;52.028;8.536;2023-03-07T00:53:24;1.90;;;0.80;;
53654;SDS011;39558;52.028;8.536;2023-03-07T00:55:56;2.13;;;0.88;;
53654;SDS011;39558;52.028;8.536;2023-03-07T00:58:24;1.60;;;0.90;;
53654;SDS011;39558;52.028;8.536;2023-03-07T01:00:50;1.30;;;0.80;;
53654;SDS011;39558;52.028;8.536;2023-03-07T01:03:16;1.83;;;0.88;;
53654;SDS011;39558;52.028;8.536;2023-03-07T01:05:43;1.73;;;0.70;;
53654;SDS011;39558;52.028;8.536;2023-03-07T01:08:09;1.33;;;0.70;;
53654;SDS011;39558;52.028;8.536;2023-03-07T01:10:34;1.33;;;0.70;;
53654;SDS011;39558;52.028;8.536;2023-03-07T01:13:00;2.35;;;0.80;;
53654;SDS011;39558;52.028;8.536;2023-03-07T01:15:26;2.78;;;1.30;;
53654;SDS011;39558;52.028;8.536;2023-03-07T01:17:52;1.33;;;0.88;;
53654;SDS011;39558;52.028;8.536;2023-03-07T01:20:18;1.48;;;0.88;;
53654;SDS011;39558;52.028;8.536;2023-03-07T01:22:44;2.30;;;1.05;;
53654;SDS011;39558;52.028;8.536;2023-03-07T01:25:10;1.90;;;1.10;;
53654;SDS011;39558;52.028;8.536;2023-03-07T01:27:37;1.67;;;0.85;;
53654;SDS011;39558;52.028;8.536;2023-03-07T01:30:03;2.15;;;1.05;;
53654;SDS011;39558;52.028;8.536;2023-03-07T01:32:29;2.08;;;1.15;;
53654;SDS011;39558;52.028;8.536;2023-03-07T01:34:55;1.95;;;0.77;;
53654;SDS011;39558;52.028;8.536;2023-03-07T01:37:21;1.48;;;0.80;;
53654;SDS011;39558;52.028;8.536;2023-03-07T01:39:49;1.35;;;0.77;;
53654;SDS011;39558;52.028;8.536;2023-03-07T01:42:15;1.20;;;0.80;;
53654;SDS011;39558;52.028;8.536;2023-03-07T01:45:01;1.45;;;1.08;;
53654;SDS011;39558;52.028;8.536;2023-03-07T01:47:27;1.83;;;0.85;;
53654;SDS011;39558;52.028;8.536;2023-03-07T01:49:53;0.93;;;0.60;;
53654;SDS011;39558;52.028;8.536;2023-03-07T01:52:22;2.72;;;1.15;;
53654;SDS011;39558;52.028;8.536;2023-03-07T01:54:50;1.42;;;0.90;;
53654;SDS011;39558;52.028;8.536;2023-03-07T01:57:18;1.67;;;1.10;;
53654;SDS011;39558;52.028;8.536;2023-03-07T01:59:45;1.80;;;1.10;;
53654;SDS011;39558;52.028;8.536;2023-03-07T02:02:13;1.20;;;0.70;;
53654;SDS011;39558;52.028;8.536;2023-03-07T02:07:13;1.80;;;1.08;;
53654;SDS011;39558;52.028;8.536;2023-03-07T02:09:40;1.58;;;0.90;;
53654;SDS011;39558;52.028;8.536;2023-03-07T02:12:07;1.58;;;0.90;;
53654;SDS011;39558;52.028;8.536;2023-03-07T02:14:34;1.52;;;1.10;;
53654;SDS011;39558;52.028;8.536;2023-03-07T02:17:00;2.25;;;1.00;;
53654;SDS011;39558;52.028;8.536;2023-03-07T02:19:35;1.58;;;0.98;;
53654;SDS011;39558;52.028;8.536;2023-03-07T02:22:08;1.60;;;0.75;;
53654;SDS011;39558;52.028;8.536;2023-03-07T02:24:50;1.70;;;0.98;;
53654;SDS011;39558;52.028;8.536;2023-03-07T02:27:17;2.22;;;1.40;;
53654;SDS011;39558;52.028;8.536;2023-03-07T02:29:43;1.75;;;1.23;;
53654;SDS011;39558;52.028;8.536;2023-03-07T02:32:09;1.35;;;0.95;;
53654;SDS011;39558;52.028;8.536;2023-03-07T02:34:35;2.58;;;0.90;;
53654;SDS011;39558;52.028;8.536;2023-03-07T02:37:06;1.52;;;1.10;;
53654;SDS011;39558;52.028;8.536;2023-03-07T02:39:33;2.42;;;1.15;;
53654;SDS011;39558;52.028;8.536;2023-03-07T02:42:01;1.73;;;1.02;;
53654;SDS011;39558;52.028;8.536;2023-03-07T02:44:28;1.75;;;1.02;;
53654;SDS011;39558;52.028;8.536;2023-03-07T02:46:54;1.75;;;0.98;;
53654;SDS011;39558;52.028;8.536;2023-03-07T02:49:20;2.33;;;1.40;;
53654;SDS011;39558;52.028;8.536;2023-03-07T02:51:46;2.78;;;1.00;;
53654;SDS011;39558;52.028;8.536;2023-03-07T02:54:12;2.13;;;1.10;;
53654;SDS011;39558;52.028;8.536;2023-03-07T02:56:38;2.78;;;1.33;;
53654;SDS011;39558;52.028;8.536;2023-03-07T02:59:04;1.50;;;1.10;;
53654;SDS011;39558;52.028;8.536;2023-03-07T03:01:30;1.60;;;0.90;;
53654;SDS011;39558;52.028;8.536;2023-03-07T03:03:56;2.40;;;1.27;;
53654;SDS011;39558;52.028;8.536;2023-03-07T03:06:21;1.98;;;1.20;;
53654;SDS011;39558;52.028;8.536;2023-03-07T03:08:48;1.83;;;1.00;;
53654;SDS011;39558;52.028;8.536;2023-03-07T03:11:14;2.83;;;1.15;;
53654;SDS011;39558;52.028;8.536;2023-03-07T03:13:39;2.03;;;1.42;;
53654;SDS011;39558;52.028;8.536;2023-03-07T03:16:06;3.17;;;1.58;;
53654;SDS011;39558;52.028;8.536;2023-03-07T03:18:32;2.33;;;1.38;;
53654;SDS011;39558;52.028;8.536;2023-03-07T03:20:58;2.03;;;1.45;;
53654;SDS011;39558;52.028;8.536;2023-03-07T03:23:25;2.05;;;1.15;;
53654;SDS011;39558;52.028;8.536;2023-03-07T03:25:58;1.95;;;1.08;;
53654;SDS011;39558;52.028;8.536;2023-03-07T03:28:24;2.03;;;1.30;;
53654;SDS011;39558;52.028;8.536;2023-03-07T03:31:00;2.33;;;1.30;;
53654;SDS011;39558;52.028;8.536;2023-03-07T03:33:26;2.30;;;1.40;;
53654;SDS011;39558;52.028;8.536;2023-03-07T03:35:53;2.38;;;1.60;;
53654;SDS011;39558;52.028;8.536;2023-03-07T03:38:19;2.10;;;1.30;;
53654;SDS011;39558;52.028;8.536;2023-03-07T03:40:44;2.80;;;1.58;;
53654;SDS011;39558;52.028;8.536;2023-03-07T03:43:10;2.60;;;1.50;;
53654;SDS011;39558;52.028;8.536;2023-03-07T03:45:36;2.00;;;1.20;;
53654;SDS011;39558;52.028;8.536;2023-03-07T03:48:04;2.08;;;1.35;;
53654;SDS011;39558;52.028;8.536;2023-03-07T03:50:30;1.80;;;1.20;;
53654;SDS011;39558;52.028;8.536;2023-03-07T03:52:55;2.25;;;1.25;;
53654;SDS011;39558;52.028;8.536;2023-03-07T03:55:21;3.05;;;1.35;;
53654;SDS011;39558;52.028;8.536;2023-03-07T03:57:47;2.22;;;1.50;;
53654;SDS011;39558;52.028;8.536;2023-03-07T04:00:13;2.38;;;1.10;;
53654;SDS011;39558;52.028;8.536;2023-03-07T04:02:43;1.67;;;1.20;;
53654;SDS011;39558;52.028;8.536;2023-03-07T04:05:09;2.03;;;1.27;;
53654;SDS011;39558;52.028;8.536;2023-03-07T04:07:35;4.45;;;1.45;;
53654;SDS011;39558;52.028;8.536;2023-03-07T04:10:01;2.55;;;1.27;;
53654;SDS011;39558;52.028;8.536;2023-03-07T04:12:27;2.75;;;1.55;;
53654;SDS011;39558;52.028;8.536;2023-03-07T04:14:53;2.08;;;1.40;;
53654;SDS011;39558;52.028;8.536;2023-03-07T04:17:19;2.95;;;1.90;;
53654;SDS011;39558;52.028;8.536;2023-03-07T04:19:44;2.42;;;1.60;;
53654;SDS011;39558;52.028;8.536;2023-03-07T04:22:10;2.45;;;1.58;;
53654;SDS011;39558;52.028;8.536;2023-03-07T04:24:36;2.55;;;1.50;;
53654;SDS011;39558;52.028;8.536;2023-03-07T04:27:02;2.53;;;1.50;;
53654;SDS011;39558;52.028;8.536;2023-03-07T04:29:29;2.67;;;1.50;;
53654;SDS011;39558;52.028;8.536;2023-03-07T04:31:55;2.30;;;1.17;;
53654;SDS011;39558;52.028;8.536;2023-03-07T04:34:20;2.60;;;1.42;;
53654;SDS011;39558;52.028;8.536;2023-03-07T04:36:46;2.65;;;1.35;;
53654;SDS011;39558;52.028;8.536;2023-03-07T04:39:12;2.53;;;1.40;;
53654;SDS011;39558;52.028;8.536;2023-03-07T04:41:38;2.58;;;1.60;;
53654;SDS011;39558;52.028;8.536;2023-03-07T04:44:04;3.08;;;1.60;;
53654;SDS011;39558;52.028;8.536;2023-03-07T04:46:30;2.72;;;1.60;;
53654;SDS011;39558;52.028;8.536;2023-03-07T04:48:56;2.25;;;1.50;;
53654;SDS011;39558;52.028;8.536;2023-03-07T04:51:22;2.45;;;1.50;;
53654;SDS011;39558;52.028;8.536;2023-03-07T04:53:48;2.28;;;1.35;;
53654;SDS011;39558;52.028;8.536;2023-03-07T04:56:14;2.17;;;1.40;;
53654;SDS011;39558;52.028;8.536;2023-03-07T04:58:40;2.28;;;1.42;;
53654;SDS011;39558;52.028;8.536;2023-03-07T05:01:06;3.15;;;1.63;;
53654;SDS011;39558;52.028;8.536;2023-03-07T05:03:32;2.22;;;1.17;;
53654;SDS011;39558;52.028;8.536;2023-03-07T05:06:02;2.50;;;1.60;;
53654;SDS011;39558;52.028;8.536;2023-03-07T05:08:29;2.65;;;1.67;;
53654;SDS011;39558;52.028;8.536;2023-03-07T05:10:55;1.88;;;1.25;;
53654;SDS011;39558;52.028;8.536;2023-03-07T05:13:21;2.55;;;1.70;;
53654;SDS011;39558;52.028;8.536;2023-03-07T05:15:50;2.45;;;1.67;;
53654;SDS011;39558;52.028;8.536;2023-03-07T05:18:16;2.28;;;1.30;;
53654;SDS011;39558;52.028;8.536;2023-03-07T05:20:42;2.50;;;1.80;;
53654;SDS011;39558;52.028;8.536;2023-03-07T05:23:08;1.90;;;1.27;;
53654;SDS011;39558;52.028;8.536;2023-03-07T05:25:34;2.40;;;1.27;;
53654;SDS011;39558;52.028;8.536;2023-03-07T05:28:00;2.00;;;1.48;;
53654;SDS011;39558;52.028;8.536;2023-03-07T05:30:26;1.98;;;1.13;;
53654;SDS011;39558;52.028;8.536;2023-03-07T05:32:52;2.63;;;1.63;;
53654;SDS011;39558;52.028;8.536;2023-03-07T05:35:18;2.90;;;1.83;;
53654;SDS011;39558;52.028;8.536;2023-03-07T05:37:48;2.75;;;1.50;;
53654;SDS011;39558;52.028;8.536;2023-03-07T05:40:14;2.85;;;1.50;;
53654;SDS011;39558;52.028;8.536;2023-03-07T05:42:40;1.85;;;1.23;;
53654;SDS011;39558;52.028;8.536;2023-03-07T05:45:06;2.20;;;1.30;;
53654;SDS011;39558;52.028;8.536;2023-03-07T05:47:32;2.13;;;1.45;;
53654;SDS011;39558;52.028;8.536;2023-03-07T05:49:58;1.83;;;1.20;;
53654;SDS011;39558;52.028;8.536;2023-03-07T05:52:24;2.08;;;1.30;;
53654;SDS011;39558;52.028;8.536;2023-03-07T05:54:50;1.63;;;1.00;;
53654;SDS011;39558;52.028;8.536;2023-03-07T05:57:16;2.72;;;1.60;;
53654;SDS011;39558;52.028;8.536;2023-03-07T05:59:42;2.00;;;1.20;;
53654;SDS011;39558;52.028;8.536;2023-03-07T06:02:07;2.17;;;1.30;;
53654;SDS011;39558;52.028;8.536;2023-03-07T06:04:33;2.88;;;1.15;;
53654;SDS011;39558;52.028;8.536;2023-03-07T06:06:59;2.00;;;1.17;;
53654;SDS011;39558;52.028;8.536;2023-03-07T06:09:25;1.75;;;1.13;;
53654;SDS011;39558;52.028;8.536;2023-03-07T06:11:52;1.67;;;1.05;;
53654;SDS011;39558;52.028;8.536;2023-03-07T06:14:18;1.95;;;1.38;;
53654;SDS011;39558;52.028;8.536;2023-03-07T06:16:43;2.45;;;1.05;;
53654;SDS011;39558;52.028;8.536;2023-03-07T06:19:09;1.70;;;1.05;;
53654;SDS011;39558;52.028;8.536;2023-03-07T06:21:35;2.17;;;1.25;;
53654;SDS011;39558;52.028;8.536;2023-03-07T06:24:01;1.95;;;1.02;;
53654;SDS011;39558;52.028;8.536;2023-03-07T06:26:27;1.92;;;1.20;;
53654;SDS011;39558;52.028;8.536;2023-03-07T06:28:53;2.35;;;1.27;;
53654;SDS011;39558;52.028;8.536;2023-03-07T06:31:19;1.60;;;0.98;;
53654;SDS011;39558;52.028;8.536;2023-03-07T06:33:45;1.63;;;1.27;;
53654;SDS011;39558;52.028;8.536;2023-03-07T06:36:12;2.25;;;1.20;;
53654;SDS011;39558;52.028;8.536;2023-03-07T06:38:38;2.05;;;1.30;;
53654;SDS011;39558;52.028;8.536;2023-03-07T06:41:04;2.92;;;1.38;;
53654;SDS011;39558;52.028;8.536;2023-03-07T06:43:30;1.15;;;0.75;;
53654;SDS011;39558;52.028;8.536;2023-03-07T06:45:56;1.73;;;1.08;;
53654;SDS011;39558;52.028;8.536;2023-03-07T06:48:22;2.22;;;1.08;;
53654;SDS011;39558;52.028;8.536;2023-03-07T06:50:48;3.90;;;1.40;;
53654;SDS011;39558;52.028;8.536;2023-03-07T06:53:14;2.33;;;1.20;;
53654;SDS011;39558;52.028;8.536;2023-03-07T06:55:40;1.75;;;0.95;;
53654;SDS011;39558;52.028;8.536;2023-03-07T06:58:06;1.85;;;1.20;;
53654;SDS011;39558;52.028;8.536;2023-03-07T07:00:32;1.98;;;1.10;;
53654;SDS011;39558;52.028;8.536;2023-03-07T07:02:57;3.00;;;1.10;;
53654;SDS011;39558;52.028;8.536;2023-03-07T07:05:23;2.47;;;1.10;;
53654;SDS011;39558;52.028;8.536;2023-03-07T07:07:49;2.03;;;1.13;;
53654;SDS011;39558;52.028;8.536;2023-03-07T07:10:16;2.38;;;1.20;;
53654;SDS011;39558;52.028;8.536;2023-03-07T07:12:42;1.33;;;0.80;;
53654;SDS011;39558;52.028;8.536;2023-03-07T07:15:08;2.20;;;1.10;;
53654;SDS011;39558;52.028;8.536;2023-03-07T07:17:34;1.95;;;0.98;;
53654;SDS011;39558;52.028;8.536;2023-03-07T07:20:01;1.33;;;0.82;;
53654;SDS011;39558;52.028;8.536;2023-03-07T07:22:28;1.80;;;0.93;;
53654;SDS011;39558;52.028;8.536;2023-03-07T07:24:54;1.83;;;0.98;;
53654;SDS011;39558;52.028;8.536;2023-03-07T07:27:20;1.75;;;1.20;;
53654;SDS011;39558;52.028;8.536;2023-03-07T07:29:46;1.42;;;0.98;;
53654;SDS011;39558;52.028;8.536;2023-03-07T07:32:12;1.33;;;0.77;;
53654;SDS011;39558;52.028;8.536;2023-03-07T07:34:38;2.03;;;1.10;;
53654;SDS011;39558;52.028;8.536;2023-03-07T07:37:04;1.77;;;1.00;;
53654;SDS011;39558;52.028;8.536;2023-03-07T07:39:30;1.83;;;0.90;;
53654;SDS011;39558;52.028;8.536;2023-03-07T07:41:56;1.40;;;0.77;;
53654;SDS011;39558;52.028;8.536;2023-03-07T07:44:21;1.40;;;0.85;;
53654;SDS011;39558;52.028;8.536;2023-03-07T07:46:47;3.10;;;1.10;;
53654;SDS011;39558;52.028;8.536;2023-03-07T07:49:13;2.35;;;1.13;;
53654;SDS011;39558;52.028;8.536;2023-03-07T07:51:39;2.20;;;1.20;;
53654;SDS011;39558;52.028;8.536;2023-03-07T07:54:05;1.20;;;0.80;;
53654;SDS011;39558;52.028;8.536;2023-03-07T07:56:31;1.10;;;0.80;;
53654;SDS011;39558;52.028;8.536;2023-03-07T07:58:57;1.45;;;0.80;;
53654;SDS011;39558;52.028;8.536;2023-03-07T08:01:23;1.88;;;1.08;;
53654;SDS011;39558;52.028;8.536;2023-03-07T08:03:50;2.17;;;0.98;;
53654;SDS011;39558;52.028;8.536;2023-03-07T08:06:20;1.45;;;1.00;;
53654;SDS011;39558;52.028;8.536;2023-03-07T08:08:46;1.42;;;0.98;;
53654;SDS011;39558;52.028;8.536;2023-03-07T08:11:12;6.72;;;1.30;;
53654;SDS011;39558;52.028;8.536;2023-03-07T08:13:38;3.92;;;1.25;;
53654;SDS011;39558;52.028;8.536;2023-03-07T08:16:11;1.75;;;0.80;;
53654;SDS011;39558;52.028;8.536;2023-03-07T08:18:38;2.70;;;0.90;;
53654;SDS011;39558;52.028;8.536;2023-03-07T08:21:04;1.33;;;0.80;;
53654;SDS011;39558;52.028;8.536;2023-03-07T08:23:30;4.88;;;1.50;;
53654;SDS011;39558;52.028;8.536;2023-03-07T08:26:03;2.65;;;0.95;;
53654;SDS011;39558;52.028;8.536;2023-03-07T08:28:30;3.17;;;1.13;;
53654;SDS011;39558;52.028;8.536;2023-03-07T08:30:56;2.17;;;0.70;;
53654;SDS011;39558;52.028;8.536;2023-03-07T08:33:22;2.25;;;1.42;;
53654;SDS011;39558;52.028;8.536;2023-03-07T08:35:48;1.80;;;0.90;;
53654;SDS011;39558;52.028;8.536;2023-03-07T08:38:14;1.33;;;0.75;;
53654;SDS011;39558;52.028;8.536;2023-03-07T08:40:40;2.17;;;0.73;;
53654;SDS011;39558;52.028;8.536;2023-03-07T08:43:06;3.25;;;1.15;;
53654;SDS011;39558;52.028;8.536;2023-03-07T08:45:31;1.38;;;0.82;;
53654;SDS011;39558;52.028;8.536;2023-03-07T08:47:57;1.35;;;0.75;;
53654;SDS011;39558;52.028;8.536;2023-03-07T08:50:25;1.42;;;0.75;;
53654;SDS011;39558;52.028;8.536;2023-03-07T08:52:52;1.90;;;0.73;;
53654;SDS011;39558;52.028;8.536;2023-03-07T08:55:18;3.67;;;1.10;;
53654;SDS011;39558;52.028;8.536;2023-03-07T08:57:44;2.75;;;0.70;;
53654;SDS011;39558;52.028;8.536;2023-03-07T09:00:11;3.70;;;0.77;;
53654;SDS011;39558;52.028;8.536;2023-03-07T09:02:37;3.72;;;1.70;;
53654;SDS011;39558;52.028;8.536;2023-03-07T09:05:03;1.33;;;0.75;;
53654;SDS011;39558;52.028;8.536;2023-03-07T09:07:29;2.95;;;1.42;;
53654;SDS011;39558;52.028;8.536;2023-03-07T09:09:55;2.35;;;0.70;;
53654;SDS011;39558;52.028;8.536;2023-03-07T09:12:21;1.23;;;0.70;;
53654;SDS011;39558;52.028;8.536;2023-03-07T09:14:47;2.58;;;0.98;;
53654;SDS011;39558;52.028;8.536;2023-03-07T09:17:13;1.15;;;0.77;;
53654;SDS011;39558;52.028;8.536;2023-03-07T09:19:39;1.20;;;0.75;;
53654;SDS011;39558;52.028;8.536;2023-03-07T09:22:07;1.95;;;0.90;;
53654;SDS011;39558;52.028;8.536;2023-03-07T09:24:33;1.48;;;0.70;;
53654;SDS011;39558;52.028;8.536;2023-03-07T09:26:58;1.50;;;0.90;;
53654;SDS011;39558;52.028;8.536;2023-03-07T09:29:24;2.47;;;0.73;;
53654;SDS011;39558;52.028;8.536;2023-03-07T09:31:50;1.98;;;1.00;;
53654;SDS011;39558;52.028;8.536;2023-03-07T09:34:16;2.05;;;0.70;;
53654;SDS011;39558;52.028;8.536;2023-03-07T09:36:42;1.63;;;0.85;;
53654;SDS011;39558;52.028;8.536;2023-03-07T09:39:08;1.15;;;0.70;;
53654;SDS011;39558;52.028;8.536;2023-03-07T09:49:44;1.80;;;0.80;;
53654;SDS011;39558;52.028;8.536;2023-03-07T09:52:11;1.25;;;0.75;;
53654;SDS011;39558;52.028;8.536;2023-03-07T09:54:45;2.67;;;0.85;;
53654;SDS011;39558;52.028;8.536;2023-03-07T09:57:17;2.97;;;1.13;;
53654;SDS011;39558;52.028;8.536;2023-03-07T09:59:46;2.85;;;0.90;;
53654;SDS011;39558;52.028;8.536;2023-03-07T10:02:27;1.27;;;0.57;;
53654;SDS011;39558;52.028;8.536;2023-03-07T10:04:55;1.15;;;0.60;;
53654;SDS011;39558;52.028;8.536;2023-03-07T10:07:24;1.67;;;0.65;;
53654;SDS011;39558;52.028;8.536;2023-03-07T10:09:52;0.95;;;0.65;;
53654;SDS011;39558;52.028;8.536;2023-03-07T10:12:25;2.90;;;0.57;;
53654;SDS011;39558;52.028;8.536;2023-03-07T10:20:02;3.00;;;0.70;;
53654;SDS011;39558;52.028;8.536;2023-03-07T10:22:36;1.48;;;0.70;;
53654;SDS011;39558;52.028;8.536;2023-03-07T10:25:27;1.65;;;0.55;;
53654;SDS011;39558;52.028;8.536;2023-03-07T10:28:06;1.27;;;0.65;;
53654;SDS011;39558;52.028;8.536;2023-03-07T10:30:36;3.10;;;0.60;;
53654;SDS011;39558;52.028;8.536;2023-03-07T10:33:01;1.23;;;0.55;;
53654;SDS011;39558;52.028;8.536;2023-03-07T10:35:38;1.67;;;0.70;;
53654;SDS011;39558;52.028;8.536;2023-03-07T10:38:19;1.13;;;0.60;;
53654;SDS011;39558;52.028;8.536;2023-03-07T10:40:49;1.58;;;0.55;;
53654;SDS011;39558;52.028;8.536;2023-03-07T10:45:49;2.78;;;0.88;;
53654;SDS011;39558;52.028;8.536;2023-03-07T10:48:17;0.93;;;0.50;;
53654;SDS011;39558;52.028;8.536;2023-03-07T10:50:50;1.20;;;0.50;;
53654;SDS011;39558;52.028;8.536;2023-03-07T10:53:22;1.42;;;0.50;;
53654;SDS011;39558;52.028;8.536;2023-03-07T10:55:49;1.42;;;0.47;;
53654;SDS011;39558;52.028;8.536;2023-03-07T10:58:20;0.82;;;0.50;;
53654;SDS011;39558;52.028;8.536;2023-03-07T11:06:03;1.50;;;0.50;;
53654;SDS011;39558;52.028;8.536;2023-03-07T11:08:33;0.93;;;0.50;;
53654;SDS011;39558;52.028;8.536;2023-03-07T11:11:00;1.25;;;0.52;;
53654;SDS011;39558;52.028;8.536;2023-03-07T11:13:27;1.20;;;0.50;;
53654;SDS011;39558;52.028;8.536;2023-03-07T11:16:09;1.02;;;0.40;;
53654;SDS011;39558;52.028;8.536;2023-03-07T11:18:40;0.93;;;0.50;;
53654;SDS011;39558;52.028;8.536;2023-03-07T11:21:22;1.15;;;0.60;;
53654;SDS011;39558;52.028;8.536;2023-03-07T11:23:56;0.80;;;0.43;;
53654;SDS011;39558;52.028;8.536;2023-03-07T11:26:23;0.93;;;0.55;;
53654;SDS011;39558;52.028;8.536;2023-03-07T11:29:02;0.45;;;0.28;;
53654;SDS011;39558;52.028;8.536;2023-03-07T11:32:17;0.90;;;0.30;;
53654;SDS011;39558;52.028;8.536;2023-03-07T11:36:40;1.77;;;0.50;;
53654;SDS011;39558;52.028;8.536;2023-03-07T11:39:15;1.52;;;0.50;;
53654;SDS011;39558;52.028;8.536;2023-03-07T11:41:45;0.57;;;0.40;;
53654;SDS011;39558;52.028;8.536;2023-03-07T11:57:30;0.25;;;0.20;;
53654;SDS011;39558;52.028;8.536;2023-03-07T12:00:01;1.23;;;0.50;;
53654;SDS011;39558;52.028;8.536;2023-03-07T12:02:33;2.38;;;0.50;;
53654;SDS011;39558;52.028;8.536;2023-03-07T12:05:04;1.15;;;0.30;;
53654;SDS011;39558;52.028;8.536;2023-03-07T12:07:41;0.85;;;0.35;;
53654;SDS011;39558;52.028;8.536;2023-03-07T12:13:03;0.50;;;0.20;;
53654;SDS011;39558;52.028;8.536;2023-03-07T12:15:34;3.50;;;0.40;;
53654;SDS011;39558;52.028;8.536;2023-03-07T12:26:08;0.82;;;0.38;;
53654;SDS011;39558;52.028;8.536;2023-03-07T12:28:44;0.95;;;0.50;;
53654;SDS011;39558;52.028;8.536;2023-03-07T12:31:25;0.75;;;0.28;;
53654;SDS011;39558;52.028;8.536;2023-03-07T12:33:53;1.88;;;0.35;;
53654;SDS011;39558;52.028;8.536;2023-03-07T12:36:25;0.45;;;0.20;;
53654;SDS011;39558;52.028;8.536;2023-03-07T12:39:14;0.70;;;0.25;;
53654;SDS011;39558;52.028;8.536;2023-03-07T12:41:57;0.30;;;0.20;;
53654;SDS011;39558;52.028;8.536;2023-03-07T12:44:44;0.57;;;0.38;;
53654;SDS011;39558;52.028;8.536;2023-03-07T12:47:15;1.20;;;0.30;;
53654;SDS011;39558;52.028;8.536;2023-03-07T12:57:43;0.40;;;0.20;;
53654;SDS011;39558;52.028;8.536;2023-03-07T13:00:15;0.77;;;0.20;;
53654;SDS011;39558;52.028;8.536;2023-03-07T13:02:43;0.65;;;0.35;;
53654;SDS011;39558;52.028;8.536;2023-03-07T13:05:15;0.88;;;0.20;;
53654;SDS011;39558;52.028;8.536;2023-03-07T13:07:42;0.88;;;0.30;;
53654;SDS011;39558;52.028;8.536;2023-03-07T13:10:10;0.35;;;0.20;;
53654;SDS011;39558;52.028;8.536;2023-03-07T13:12:39;0.47;;;0.20;;
53654;SDS011;39558;52.028;8.536;2023-03-07T13:22:54;0.40;;;0.20;;
53654;SDS011;39558;52.028;8.536;2023-03-07T13:30:20;0.43;;;0.13;;
53654;SDS011;39558;52.028;8.536;2023-03-07T13:40:21;1.38;;;0.30;;
53654;SDS011;39558;52.028;8.536;2023-03-07T13:42:48;1.00;;;0.20;;
53654;SDS011;39558;52.028;8.536;2023-03-07T13:47:58;0.35;;;0.20;;
53654;SDS011;39558;52.028;8.536;2023-03-07T13:50:35;0.38;;;0.20;;
53654;SDS011;39558;52.028;8.536;2023-03-07T13:55:55;0.20;;;0.20;;
53654;SDS011;39558;52.028;8.536;2023-03-07T13:58:36;0.85;;;0.28;;
53654;SDS011;39558;52.028;8.536;2023-03-07T14:03:49;0.28;;;0.10;;
53654;SDS011;39558;52.028;8.536;2023-03-07T14:06:17;1.05;;;0.22;;
53654;SDS011;39558;52.028;8.536;2023-03-07T14:08:43;1.00;;;0.30;;
53654;SDS011;39558;52.028;8.536;2023-03-07T14:11:14;0.40;;;0.20;;
53654;SDS011;39558;52.028;8.536;2023-03-07T14:13:48;0.52;;;0.22;;
53654;SDS011;39558;52.028;8.536;2023-03-07T14:16:30;1.05;;;0.20;;
53654;SDS011;39558;52.028;8.536;2023-03-07T14:19:09;0.30;;;0.13;;
53654;SDS011;39558;52.028;8.536;2023-03-07T14:24:26;0.47;;;0.20;;
53654;SDS011;39558;52.028;8.536;2023-03-07T14:26:56;0.43;;;0.30;;
53654;SDS011;39558;52.028;8.536;2023-03-07T14:29:26;0.50;;;0.15;;
53654;SDS011;39558;52.028;8.536;2023-03-07T14:31:53;0.10;;;0.10;;
53654;SDS011;39558;52.028;8.536;2023-03-07T14:36:56;0.43;;;0.20;;
53654;SDS011;39558;52.028;8.536;2023-03-07T14:39:23;0.88;;;0.20;;
53654;SDS011;39558;52.028;8.536;2023-03-07T14:52:22;0.30;;;0.10;;
53654;SDS011;39558;52.028;8.536;2023-03-07T14:54:50;0.45;;;0.15;;
53654;SDS011;39558;52.028;8.536;2023-03-07T14:57:21;0.20;;;0.13;;
53654;SDS011;39558;52.028;8.536;2023-03-07T15:00:00;0.38;;;0.20;;
53654;SDS011;39558;52.028;8.536;2023-03-07T15:02:26;0.20;;;0.10;;
53654;SDS011;39558;52.028;8.536;2023-03-07T15:04:52;0.55;;;0.10;;
53654;SDS011;39558;52.028;8.536;2023-03-07T15:07:21;0.35;;;0.20;;
53654;SDS011;39558;52.028;8.536;2023-03-07T15:09:48;0.95;;;0.17;;
53654;SDS011;39558;52.028;8.536;2023-03-07T15:12:15;0.30;;;0.20;;
53654;SDS011;39558;52.028;8.536;2023-03-07T15:14:47;0.63;;;0.32;;
53654;SDS011;39558;52.028;8.536;2023-03-07T15:17:20;1.38;;;0.30;;
53654;SDS011;39558;52.028;8.536;2023-03-07T15:20:02;0.63;;;0.10;;
53654;SDS011;39558;52.028;8.536;2023-03-07T15:22:32;0.70;;;0.43;;
53654;SDS011;39558;52.028;8.536;2023-03-07T15:25:03;0.68;;;0.20;;
53654;SDS011;39558;52.028;8.536;2023-03-07T15:27:30;0.60;;;0.20;;
53654;SDS011;39558;52.028;8.536;2023-03-07T15:29:57;0.70;;;0.17;;
53654;SDS011;39558;52.028;8.536;2023-03-07T15:32:28;1.55;;;0.22;;
53654;SDS011;39558;52.028;8.536;2023-03-07T15:34:59;0.40;;;0.10;;
53654;SDS011;39558;52.028;8.536;2023-03-07T15:37:26;0.40;;;0.30;;
53654;SDS011;39558;52.028;8.536;2023-03-07T15:39:56;0.50;;;0.20;;
53654;SDS011;39558;52.028;8.536;2023-03-07T15:45:24;1.08;;;0.10;;
53654;SDS011;39558;52.028;8.536;2023-03-07T15:47:37;0.45;;;0.10;;
53654;SDS011;39558;52.028;8.536;2023-03-07T15:50:05;0.20;;;0.05;;
53654;SDS011;39558;52.028;8.536;2023-03-07T15:52:35;0.82;;;0.20;;
53654;SDS011;39558;52.028;8.536;2023-03-07T15:55:18;0.35;;;0.10;;
53654;SDS011;39558;52.028;8.536;2023-03-07T15:57:51;0.10;;;0.10;;
53654;SDS011;39558;52.028;8.536;2023-03-07T16:00:20;1.02;;;0.20;;
53654;SDS011;39558;52.028;8.536;2023-03-07T16:02:47;0.65;;;0.20;;
53654;SDS011;39558;52.028;8.536;2023-03-07T16:07:47;0.38;;;0.15;;
53654;SDS011;39558;52.028;8.536;2023-03-07T16:10:16;0.55;;;0.30;;
53654;SDS011;39558;52.028;8.536;2023-03-07T16:12:42;0.52;;;0.20;;
53654;SDS011;39558;52.028;8.536;2023-03-07T16:15:13;0.75;;;0.13;;
53654;SDS011;39558;52.028;8.536;2023-03-07T16:17:39;1.07;;;0.30;;
53654;SDS011;39558;52.028;8.536;2023-03-07T16:20:16;0.70;;;0.20;;
53654;SDS011;39558;52.028;8.536;2023-03-07T16:22:42;0.60;;;0.20;;
53654;SDS011;39558;52.028;8.536;2023-03-07T16:25:08;0.10;;;0.10;;
53654;SDS011;39558;52.028;8.536;2023-03-07T16:27:37;0.35;;;0.20;;
53654;SDS011;39558;52.028;8.536;2023-03-07T16:30:14;1.33;;;0.30;;
53654;SDS011;39558;52.028;8.536;2023-03-07T16:32:41;0.30;;;0.13;;
53654;SDS011;39558;52.028;8.536;2023-03-07T16:35:18;0.85;;;0.25;;
53654;SDS011;39558;52.028;8.536;2023-03-07T16:37:44;0.88;;;0.20;;
53654;SDS011;39558;52.028;8.536;2023-03-07T16:40:11;1.40;;;0.30;;
53654;SDS011;39558;52.028;8.536;2023-03-07T16:42:40;1.35;;;0.30;;